createdAt,value
2019-01-20T00:02:13.007Z,95073.00
2019-01-20T00:07:42.296Z,95079.00
2019-01-20T00:13:11.577Z,95072.00
2019-01-20T00:18:40.884Z,95062.00
2019-01-20T00:24:10.228Z,95064.00
2019-01-20T00:29:39.529Z,95067.00
2019-01-20T00:35:08.955Z,95063.00
2019-01-20T00:40:38.238Z,95074.00
2019-01-20T00:46:08.541Z,95067.00
2019-01-20T00:51:37.851Z,95071.00
2019-01-20T00:57:07.153Z,95061.00
2019-01-20T01:02:36.440Z,95063.00
2019-01-20T01:08:06.161Z,95057.00
2019-01-20T01:13:35.433Z,95056.00
2019-01-20T01:19:04.794Z,95072.00
2019-01-20T01:24:34.073Z,95062.00
2019-01-20T01:30:05.014Z,95067.00
2019-01-20T01:35:34.306Z,95072.00
2019-01-20T01:41:03.981Z,95074.00
2019-01-20T01:46:33.274Z,95061.00
2019-01-20T01:52:02.573Z,95076.00
2019-01-20T01:57:31.856Z,95061.00
2019-01-20T02:03:01.144Z,95057.00
2019-01-20T02:08:30.450Z,95063.00
2019-01-20T02:13:59.720Z,95056.00
2019-01-20T02:19:29.101Z,95053.00
2019-01-20T02:24:58.358Z,95056.00
2019-01-20T02:30:29.289Z,95053.00
2019-01-20T02:35:58.598Z,95050.00
2019-01-20T02:41:27.880Z,95065.00
2019-01-20T02:47:16.497Z,95060.00
2019-01-20T02:52:45.786Z,95053.00
2019-01-20T02:58:15.472Z,95042.00
2019-01-20T03:03:45.101Z,95036.00
2019-01-20T03:09:14.566Z,95043.00
2019-01-20T03:14:43.843Z,95038.00
2019-01-20T03:20:20.079Z,95035.00
2019-01-20T03:25:49.378Z,95042.00
2019-01-20T03:31:18.672Z,95044.00
2019-01-20T03:36:47.945Z,95048.00
2019-01-20T03:42:17.227Z,95040.00
2019-01-20T03:47:46.554Z,95046.00
2019-01-20T03:53:22.652Z,95041.00
2019-01-20T03:58:51.983Z,95032.00
2019-01-20T04:04:21.334Z,95039.00
2019-01-20T04:09:50.627Z,95038.00
2019-01-20T04:15:19.986Z,95033.00
2019-01-20T04:20:49.259Z,95044.00
2019-01-20T04:26:18.592Z,95040.00
2019-01-20T04:31:47.954Z,95034.00
2019-01-20T04:37:18.201Z,95023.00
2019-01-20T04:42:47.553Z,95030.00
2019-01-20T04:48:16.842Z,95026.00
2019-01-20T04:53:47.367Z,95015.00
2019-01-20T04:59:16.731Z,95028.00
2019-01-20T05:04:47.204Z,95032.00
2019-01-20T05:10:18.589Z,95039.00
2019-01-20T05:15:47.869Z,95042.00
2019-01-20T05:21:17.215Z,95049.00
2019-01-20T05:26:46.501Z,95048.00
2019-01-20T05:32:15.772Z,95050.00
2019-01-20T05:37:45.140Z,95049.00
2019-01-20T05:43:14.415Z,95043.00
2019-01-20T05:48:43.686Z,95047.00
2019-01-20T05:54:13.042Z,95048.00
2019-01-20T05:59:42.615Z,95051.00
2019-01-20T06:05:12.090Z,95052.00
2019-01-20T06:10:41.434Z,95060.00
2019-01-20T06:16:10.773Z,95053.00
2019-01-20T06:21:40.046Z,95055.00
2019-01-20T06:27:09.324Z,95064.00
2019-01-20T06:32:38.610Z,95049.00
2019-01-20T06:38:07.880Z,95052.00
2019-01-20T06:43:37.162Z,95062.00
2019-01-20T06:49:06.464Z,95067.00
2019-01-20T06:54:35.737Z,95067.00
2019-01-20T07:00:15.111Z,95080.00
2019-01-20T07:05:44.393Z,95092.00
2019-01-20T07:11:13.687Z,95100.00
2019-01-20T07:16:42.992Z,95085.00
2019-01-20T07:22:12.252Z,95098.00
2019-01-20T07:27:41.715Z,95096.00
2019-01-20T07:33:11.081Z,95105.00
2019-01-20T07:38:40.358Z,95115.00
2019-01-20T07:44:10.647Z,95117.00
2019-01-20T07:49:39.954Z,95117.00
2019-01-20T07:55:10.432Z,95125.00
2019-01-20T08:00:39.800Z,95132.00
2019-01-20T08:06:09.068Z,95134.00
2019-01-20T08:11:38.359Z,95140.00
2019-01-20T08:17:07.639Z,95143.00
2019-01-20T08:22:37.135Z,95154.00
2019-01-20T08:28:06.552Z,95162.00
2019-01-20T08:33:35.841Z,95160.00
2019-01-20T08:39:07.834Z,95165.00
2019-01-20T08:44:37.215Z,95166.00
2019-01-20T08:50:10.563Z,95172.00
2019-01-20T08:55:39.882Z,95185.00
2019-01-20T09:01:09.160Z,95177.00
2019-01-20T09:06:38.437Z,95197.00
2019-01-20T09:12:07.744Z,95212.00
2019-01-20T09:17:37.027Z,95202.00
2019-01-20T09:23:06.590Z,95213.00
2019-01-20T09:28:35.880Z,95215.00
2019-01-20T09:34:12.519Z,95230.00
2019-01-20T09:39:39.279Z,95226.00
2019-01-20T09:45:24.010Z,95232.00
2019-01-20T09:50:53.301Z,95230.00
2019-01-20T09:56:25.258Z,95229.00
2019-01-20T10:01:54.540Z,95231.00
2019-01-20T10:07:23.892Z,95234.00
2019-01-20T10:12:56.347Z,95238.00
2019-01-20T10:18:25.630Z,95230.00
2019-01-20T10:23:55.068Z,95239.00
2019-01-20T10:29:34.664Z,95243.00
2019-01-20T10:35:05.564Z,95241.00
2019-01-20T10:40:35.034Z,95236.00
2019-01-20T10:46:09.388Z,95235.00
2019-01-20T10:51:39.108Z,95244.00
2019-01-20T10:57:14.424Z,95236.00
2019-01-20T11:02:43.911Z,95245.00
2019-01-20T11:08:13.389Z,95241.00
2019-01-20T11:13:42.966Z,95245.00
2019-01-20T11:19:12.527Z,95256.00
2019-01-20T11:24:42.419Z,95256.00
2019-01-20T11:30:14.220Z,95246.00
2019-01-20T11:35:43.954Z,95245.00
2019-01-20T11:41:14.244Z,95255.00
2019-01-20T11:46:44.658Z,95248.00
2019-01-20T11:52:16.663Z,95258.00
2019-01-20T11:57:49.745Z,95250.00
2019-01-20T12:03:27.321Z,95250.00
2019-01-20T12:08:56.857Z,95250.00
2019-01-20T12:14:26.350Z,95249.00
2019-01-20T12:19:55.707Z,95259.00
2019-01-20T12:25:26.561Z,95255.00
2019-01-20T12:30:56.145Z,95249.00
2019-01-20T12:36:27.129Z,95252.00
2019-01-20T12:41:57.214Z,95250.00
2019-01-20T12:47:26.714Z,95250.00
2019-01-20T12:52:56.130Z,95256.00
2019-01-20T12:58:33.716Z,95266.00
2019-01-20T13:04:03.373Z,95254.00
2019-01-20T13:09:32.810Z,95249.00
2019-01-20T13:15:02.219Z,95238.00
2019-01-20T13:20:31.770Z,95247.00
2019-01-20T13:26:01.189Z,95252.00
2019-01-20T13:31:30.537Z,95251.00
2019-01-20T13:37:01.426Z,95255.00
2019-01-20T13:42:30.985Z,95258.00
2019-01-20T13:48:00.365Z,95263.00
2019-01-20T13:53:29.843Z,95263.00
2019-01-20T13:58:59.201Z,95253.00
2019-01-20T14:04:28.561Z,95264.00
2019-01-20T14:09:58.997Z,95268.00
2019-01-20T14:15:29.438Z,95272.00
2019-01-20T14:20:58.918Z,95281.00
2019-01-20T14:26:28.306Z,95289.00
2019-01-20T14:31:57.662Z,95281.00
2019-01-20T14:37:27.156Z,95280.00
2019-01-20T14:42:56.607Z,95284.00
2019-01-20T14:48:26.109Z,95281.00
2019-01-20T14:53:55.464Z,95287.00
2019-01-20T14:59:25.888Z,95290.00
2019-01-20T15:04:55.660Z,95300.00
2019-01-20T15:10:25.259Z,95292.00
2019-01-20T15:15:54.600Z,95305.00
2019-01-20T15:21:24.575Z,95297.00
2019-01-20T15:26:54.234Z,95301.00
2019-01-20T15:32:23.864Z,95313.00
2019-01-20T15:37:53.558Z,95303.00
2019-01-20T15:43:23.220Z,95317.00
2019-01-20T15:48:53.939Z,95320.00
2019-01-20T15:54:23.586Z,95315.00
2019-01-20T15:59:56.579Z,95314.00
2019-01-20T16:05:28.428Z,95324.00
2019-01-20T16:10:57.879Z,95328.00
2019-01-20T16:16:28.402Z,95334.00
2019-01-20T16:21:59.000Z,95342.00
2019-01-20T16:27:29.198Z,95342.00
2019-01-20T16:33:04.809Z,95346.00
2019-01-20T16:38:34.217Z,95355.00
2019-01-20T16:44:14.873Z,95350.00
2019-01-20T16:49:49.650Z,95354.00
2019-01-20T16:55:19.559Z,95358.00
2019-01-20T17:00:50.513Z,95354.00
2019-01-20T17:06:28.265Z,95362.00
2019-01-20T17:12:01.028Z,95360.00
2019-01-20T17:17:31.555Z,95358.00
2019-01-20T17:23:03.467Z,95372.00
2019-01-20T17:28:38.229Z,95385.00
2019-01-20T17:34:09.730Z,95386.00
2019-01-20T17:39:39.254Z,95390.00
2019-01-20T17:45:14.362Z,95393.00
2019-01-20T17:50:44.589Z,95397.00
2019-01-20T17:56:14.450Z,95409.00
2019-01-20T18:01:44.171Z,95414.00
2019-01-20T18:07:13.651Z,95416.00
2019-01-20T18:18:23.717Z,95428.00
2019-01-20T18:23:53.224Z,95433.00
2019-01-20T18:29:22.851Z,95430.00
2019-01-20T18:34:52.267Z,95435.00
2019-01-20T18:40:24.000Z,95440.00
2019-01-20T18:46:24.778Z,95444.00
2019-01-20T18:51:54.339Z,95453.00
2019-01-20T18:57:28.828Z,95448.00
2019-01-20T19:03:17.611Z,95442.00
2019-01-20T19:08:47.005Z,95442.00
2019-01-20T19:14:16.512Z,95445.00
2019-01-20T19:19:45.791Z,95458.00
2019-01-20T19:25:15.361Z,95454.00
2019-01-20T19:30:44.597Z,95461.00
2019-01-20T19:36:13.994Z,95459.00
2019-01-20T19:41:43.279Z,95468.00
2019-01-20T19:47:23.176Z,95472.00
2019-01-20T19:52:49.656Z,95477.00
2019-01-20T19:58:18.978Z,95480.00
2019-01-20T20:03:48.305Z,95489.00
2019-01-20T20:14:59.672Z,95494.00
2019-01-20T20:20:30.170Z,95498.00
2019-01-20T20:26:01.455Z,95504.00
2019-01-20T20:31:30.831Z,95507.00
2019-01-20T20:37:02.154Z,95516.00
2019-01-20T20:42:31.532Z,95514.00
2019-01-20T20:48:00.819Z,95521.00
2019-01-20T20:53:30.099Z,95528.00
2019-01-20T20:59:00.447Z,95534.00
2019-01-20T21:04:29.744Z,95539.00
2019-01-20T21:09:59.037Z,95533.00
2019-01-20T21:15:28.329Z,95538.00
2019-01-20T21:20:57.722Z,95538.00
2019-01-20T21:26:27.009Z,95547.00
2019-01-20T21:31:56.283Z,95548.00
2019-01-20T21:37:26.538Z,95559.00
2019-01-20T21:42:55.819Z,95555.00
2019-01-20T21:48:26.073Z,95567.00
2019-01-20T21:53:55.416Z,95574.00
2019-01-20T21:59:25.630Z,95565.00
2019-01-20T22:04:55.879Z,95569.00
2019-01-20T22:10:25.609Z,95579.00
2019-01-20T22:15:55.078Z,95582.00
2019-01-20T22:21:25.552Z,95588.00
2019-01-20T22:26:57.974Z,95590.00
2019-01-20T22:32:34.064Z,95590.00
2019-01-20T22:38:03.360Z,95586.00
2019-01-20T22:43:32.690Z,95588.00
2019-01-20T22:49:01.929Z,95597.00
2019-01-20T22:54:31.209Z,95596.00
2019-01-20T23:00:00.533Z,95597.00
2019-01-20T23:05:30.098Z,95601.00
2019-01-20T23:10:59.406Z,95597.00
2019-01-20T23:16:28.811Z,95600.00
2019-01-20T23:21:58.115Z,95595.00
2019-01-20T23:27:27.412Z,95600.00
2019-01-20T23:32:56.763Z,95602.00
2019-01-20T23:38:26.062Z,95604.00
2019-01-20T23:43:55.432Z,95606.00
2019-01-20T23:49:24.797Z,95602.00
2019-01-20T23:54:54.190Z,95605.00
